Time;durP1;ratioP1;P1;durP2;ratioP2;P2;SDS_P1;SDS_P2;PMS_P1;PMS_P2;Temp;Humidity;BMP_temperature;BMP_pressure;BME280_temperature;BME280_humidity;BME280_pressure;Samples;Min_cycle;Max_cycle;Signal;HPM_P1;HPM_P2
2022/08/19 00:00:03;;;;;;;;;;;15.80;99.90;;;;;;5093236;28;20160;-76
2022/08/19 00:02:29;;;;;;;14.02;8.20;;;15.90;99.90;;;;;;5092904;28;19927;-75
2022/08/19 00:04:55;;;;;;;;;;;15.70;99.90;;;;;;5092950;28;20416;-75
2022/08/19 00:07:20;;;;;;;13.68;10.13;;;15.80;99.90;;;;;;5092839;28;20379;-77
2022/08/19 00:09:46;;;;;;;;;;;15.50;99.90;;;;;;5092821;28;20086;-78
2022/08/19 00:12:12;;;;;;;14.10;8.40;;;15.80;99.90;;;;;;5092133;28;19927;-77
2022/08/19 00:14:39;;;;;;;;;;;15.40;99.90;;;;;;5092842;28;20048;-78
2022/08/19 00:17:06;;;;;;;13.35;8.77;;;15.30;99.90;;;;;;5092703;28;20394;-77
2022/08/19 00:19:32;;;;;;;14.57;9.18;;;15.60;99.90;;;;;;5074728;28;20047;-76
2022/08/19 00:21:58;;;;;;;;;;;15.50;99.90;;;;;;5092936;28;20071;-77
2022/08/19 00:24:24;;;;;;;13.70;8.57;;;15.50;99.90;;;;;;5091670;28;19975;-77
2022/08/19 00:26:50;;;;;;;11.77;9.35;;;15.50;99.90;;;;;;5091910;28;20051;-77
2022/08/19 00:29:18;;;;;;;12.95;9.40;;;15.40;99.90;;;;;;5092202;28;20043;-78
2022/08/19 00:31:44;;;;;;;14.30;9.48;;;15.90;99.90;;;;;;5090719;28;20051;-77
2022/08/19 00:34:13;;;;;;;15.35;8.80;;;13.30;99.90;;;;;;5092353;28;20546;-77
2022/08/19 00:36:39;;;;;;;13.95;8.98;;;15.50;99.90;;;;;;5074394;28;20559;-77
2022/08/19 00:39:05;;;;;;;11.50;9.38;;;15.60;99.90;;;;;;5092215;28;20054;-77
2022/08/19 00:41:31;;;;;;;;;;;15.40;99.90;;;;;;5092360;28;20419;-77
2022/08/19 00:44:02;;;;;;;12.95;9.18;;;15.30;99.90;;;;;;5091889;28;19989;-76
2022/08/19 00:46:29;;;;;;;15.48;10.00;;;14.80;99.90;;;;;;5091270;28;20044;-77
2022/08/19 00:48:57;;;;;;;14.13;9.52;;;16.10;99.90;;;;;;5091965;28;20050;-78
2022/08/19 00:51:26;;;;;;;11.75;7.40;;;15.40;99.90;;;;;;5090696;28;20106;-79
2022/08/19 00:53:53;;;;;;;13.57;8.32;;;15.80;99.90;;;;;;5092011;28;20059;-78
2022/08/19 00:56:19;;;;;;;12.70;9.18;;;15.40;99.90;;;;;;5091524;28;20052;-77
2022/08/19 00:58:45;;;;;;;;;;;16.20;99.90;;;;;;5091503;28;20052;-78
2022/08/19 01:01:10;;;;;;;11.52;8.63;;;15.50;99.90;;;;;;5092034;28;19927;-77
2022/08/19 01:03:36;;;;;;;;;;;14.90;99.90;;;;;;5091151;28;20097;-77
2022/08/19 01:06:02;;;;;;;13.15;9.05;;;15.30;99.90;;;;;;5090813;28;20037;-77
2022/08/19 01:08:28;;;;;;;13.43;10.05;;;14.70;99.90;;;;;;5091886;28;20039;-77
2022/08/19 01:10:55;;;;;;;;;;;15.20;99.90;;;;;;5091605;28;20510;-78
2022/08/19 01:13:25;;;;;;;14.10;10.25;;;14.80;99.90;;;;;;5092051;28;20300;-78
2022/08/19 01:16:04;;;;;;;17.13;11.18;;;14.90;99.90;;;;;;5091929;28;20066;-77
2022/08/19 01:18:31;;;;;;;13.25;10.23;;;15.00;99.90;;;;;;5091816;28;20458;-78
2022/08/19 01:21:06;;;;;;;16.98;10.75;;;14.80;99.90;;;;;;5090579;28;20043;-78
2022/08/19 01:23:44;;;;;;;13.20;8.30;;;15.10;99.90;;;;;;5091704;28;20044;-77
2022/08/19 01:26:13;;;;;;;12.77;7.80;;;14.80;99.90;;;;;;5091589;28;20055;-77
2022/08/19 01:28:40;;;;;;;15.15;9.15;;;14.90;99.90;;;;;;5091745;28;20411;-78
2022/08/19 01:31:11;;;;;;;18.08;10.73;;;14.80;99.90;;;;;;5091305;28;20521;-79
2022/08/19 01:33:38;;;;;;;15.90;10.75;;;15.10;99.90;;;;;;5091693;28;20097;-78
2022/08/19 01:36:10;;;;;;;12.73;9.82;;;14.90;99.90;;;;;;5092306;28;20051;-78
2022/08/19 01:38:39;;;;;;;15.75;9.90;;;15.00;99.90;;;;;;5094643;28;20044;-78
2022/08/19 01:41:06;;;;;;;11.25;8.55;;;15.70;99.90;;;;;;5095489;28;20052;-79
2022/08/19 01:43:32;;;;;;;11.35;8.80;;;15.00;99.90;;;;;;5095505;28;20051;-78
2022/08/19 01:45:58;;;;;;;15.35;8.68;;;15.30;99.90;;;;;;5095585;28;20048;-80
2022/08/19 01:48:24;;;;;;;13.32;8.60;;;14.80;99.90;;;;;;5095479;28;20097;-78
2022/08/19 01:50:50;;;;;;;;;;;14.70;99.90;;;;;;5094579;28;20122;-78
2022/08/19 01:53:16;;;;;;;15.82;9.23;;;14.90;99.90;;;;;;5095223;28;19942;-79
2022/08/19 01:55:42;;;;;;;;;;;14.50;99.90;;;;;;5096395;28;20040;-79
2022/08/19 01:58:16;;;;;;;14.17;11.17;;;14.50;99.90;;;;;;5095124;28;20387;-79
2022/08/19 02:00:43;;;;;;;14.90;10.07;;;14.50;99.90;;;;;;5094186;28;20297;-78
2022/08/19 02:03:10;;;;;;;14.15;9.85;;;15.30;99.90;;;;;;5095149;28;20051;-78
2022/08/19 02:05:37;;;;;;;13.90;10.20;;;14.80;99.90;;;;;;5095219;28;20051;-79
2022/08/19 02:08:03;;;;;;;16.60;9.63;;;15.40;99.90;;;;;;5094917;28;20054;-79
2022/08/19 02:10:28;;;;;;;12.00;9.60;;;14.60;99.90;;;;;;5094032;28;20043;-79
2022/08/19 02:12:54;;;;;;;;;;;14.50;99.90;;;;;;5094161;28;20047;-80
2022/08/19 02:15:20;;;;;;;16.73;10.15;;;14.40;99.90;;;;;;5094964;28;19935;-79
2022/08/19 02:17:46;;;;;;;;;;;14.40;99.90;;;;;;5094199;28;20142;-78
2022/08/19 02:20:13;;;;;;;13.40;9.57;;;14.30;99.90;;;;;;5094834;28;19920;-79
2022/08/19 02:22:42;;;;;;;19.38;11.57;;;14.50;99.90;;;;;;5093406;28;20036;-79
2022/08/19 02:25:09;;;;;;;14.27;10.25;;;14.30;99.90;;;;;;5094779;28;20044;-79
2022/08/19 02:27:35;;;;;;;13.20;9.50;;;14.00;99.90;;;;;;5094697;28;20048;-78
2022/08/19 02:30:01;;;;;;;12.68;9.90;;;14.10;99.90;;;;;;5093229;28;20079;-81
2022/08/19 02:32:27;;;;;;;14.15;10.07;;;14.30;99.90;;;;;;5094391;28;20048;-79
2022/08/19 02:34:52;;;;;;;15.85;10.05;;;14.20;99.90;;;;;;5094668;28;20063;-78
2022/08/19 02:40:03;;;;;;;16.38;10.70;;;14.40;99.90;;;;;;5094435;28;20399;-78
2022/08/19 02:42:29;;;;;;;16.52;10.93;;;14.40;99.90;;;;;;5076563;28;20047;-79
2022/08/19 02:44:55;;;;;;;18.27;12.45;;;14.30;99.90;;;;;;5094108;28;20040;-80
2022/08/19 02:47:21;;;;;;;21.10;12.93;;;14.30;99.90;;;;;;5109341;28;20040;-78
2022/08/19 02:49:49;;;;;;;12.75;9.38;;;14.30;99.90;;;;;;5109941;28;20047;-78
2022/08/19 02:52:15;;;;;;;13.40;9.75;;;14.30;99.90;;;;;;5094068;28;20059;-79
2022/08/19 02:54:41;;;;;;;;;;;14.20;99.90;;;;;;5094633;28;20059;-79
2022/08/19 02:57:07;;;;;;;15.55;11.55;;;14.10;99.90;;;;;;5094093;28;19920;-80
2022/08/19 02:59:34;;;;;;;18.95;12.73;;;14.20;99.90;;;;;;5094015;28;20125;-80
2022/08/19 03:01:59;;;;;;;18.52;11.60;;;14.10;99.90;;;;;;5094451;28;20050;-80
2022/08/19 03:04:25;;;;;;;15.98;11.50;;;14.20;99.90;;;;;;5094367;28;20044;-79
2022/08/19 03:06:51;;;;;;;;;;;14.40;99.90;;;;;;5094089;28;20052;-80
2022/08/19 03:09:19;;;;;;;17.58;12.52;;;14.10;99.90;;;;;;5094037;28;19920;-79
2022/08/19 03:11:45;;;;;;;21.70;12.73;;;14.60;99.90;;;;;;5092619;28;20044;-79
2022/08/19 03:14:12;;;;;;;22.08;12.75;;;14.30;99.90;;;;;;5093812;28;20109;-79
2022/08/19 03:16:47;;;;;;;24.00;13.50;;;14.10;99.90;;;;;;5093627;28;20492;-79
2022/08/19 03:19:15;;;;;;;22.38;13.15;;;14.00;99.90;;;;;;5093721;28;20040;-79
2022/08/19 03:21:44;;;;;;;21.00;13.50;;;14.00;99.90;;;;;;5093450;28;20065;-78
2022/08/19 03:24:11;;;;;;;22.55;13.70;;;14.40;99.90;;;;;;5093530;28;20131;-77
2022/08/19 03:26:42;;;;;;;21.02;13.45;;;14.00;99.90;;;;;;5092174;28;20105;-78
2022/08/19 03:29:10;;;;;;;24.80;13.80;;;14.10;99.90;;;;;;5093527;28;20083;-79
2022/08/19 03:31:36;;;;;;;20.52;13.50;;;14.90;99.90;;;;;;5093276;28;20064;-78
2022/08/19 03:34:02;;;;;;;20.27;13.18;;;14.20;99.90;;;;;;5093230;28;20458;-77
2022/08/19 03:36:28;;;;;;;22.13;13.73;;;14.90;99.90;;;;;;5092030;28;20073;-80
2022/08/19 03:38:55;;;;;;;;;;;14.70;99.90;;;;;;5093722;28;20516;-77
2022/08/19 03:41:31;;;;;;;20.20;13.32;;;13.70;99.90;;;;;;5093164;28;20015;-77
2022/08/19 03:43:57;;;;;;;17.13;12.70;;;14.30;99.90;;;;;;5092243;28;20047;-78
2022/08/19 03:46:29;;;;;;;20.52;12.35;;;13.90;99.90;;;;;;5093356;28;20047;-79
2022/08/19 03:48:57;;;;;;;22.98;12.55;;;14.20;99.90;;;;;;5075757;28;20044;-80
2022/08/19 03:51:34;;;;;;;20.02;12.25;;;13.80;99.90;;;;;;5091707;28;20040;-79
2022/08/19 03:54:03;;;;;;;24.98;13.23;;;13.90;99.90;;;;;;5093179;28;20048;-79
2022/08/19 03:56:29;;;;;;;20.77;11.93;;;13.90;99.90;;;;;;5093061;28;20492;-79
2022/08/19 03:58:56;;;;;;;16.63;12.05;;;14.50;99.90;;;;;;5092759;28;20492;-80
2022/08/19 04:01:26;;;;;;;21.30;11.52;;;13.90;99.90;;;;;;5092962;28;20071;-78
2022/08/19 04:03:53;;;;;;;18.35;11.18;;;14.00;99.90;;;;;;5092567;28;20048;-78
2022/08/19 04:06:22;;;;;;;20.98;11.85;;;13.70;99.90;;;;;;5092766;28;20055;-78
2022/08/19 04:08:50;;;;;;;22.67;11.85;;;13.70;99.90;;;;;;5092626;28;20051;-77
2022/08/19 04:11:21;;;;;;;21.05;11.45;;;13.60;99.90;;;;;;5092571;28;20040;-78
2022/08/19 04:13:47;;;;;;;15.23;10.85;;;13.80;99.90;;;;;;5092746;28;20036;-79
2022/08/19 04:16:13;;;;;;;20.08;11.95;;;14.00;99.90;;;;;;5091211;28;20104;-77
2022/08/19 04:18:40;;;;;;;;;;;13.50;99.90;;;;;;5092694;28;20157;-78
2022/08/19 04:21:07;;;;;;;18.30;11.77;;;13.90;99.90;;;;;;5092389;28;20391;-78
2022/08/19 04:23:35;;;;;;;19.42;11.88;;;13.70;99.90;;;;;;5092778;28;20052;-78
2022/08/19 04:26:02;;;;;;;17.50;11.63;;;13.30;99.90;;;;;;5092441;28;20052;-77
2022/08/19 04:28:28;;;;;;;18.05;11.32;;;13.70;99.90;;;;;;5092295;28;20044;-78
2022/08/19 04:30:55;;;;;;;17.63;11.90;;;13.20;99.90;;;;;;5090831;28;20138;-78
2022/08/19 04:33:24;;;;;;;18.52;11.82;;;13.20;99.90;;;;;;5090625;28;20506;-78
2022/08/19 04:35:52;;;;;;;21.90;13.43;;;13.90;99.90;;;;;;5091208;28;20047;-79
2022/08/19 04:38:22;;;;;;;24.35;13.80;;;13.60;99.90;;;;;;5092184;28;20044;-79
2022/08/19 04:43:35;;;;;;;25.30;14.27;;;13.60;99.90;;;;;;5091994;28;20100;-78
2022/08/19 04:46:07;;;;;;;23.90;13.80;;;13.90;99.90;;;;;;5091905;28;20047;-78
2022/08/19 04:48:34;;;;;;;25.48;14.55;;;13.80;99.90;;;;;;5091025;28;20166;-78
2022/08/19 04:50:59;;;;;;;24.92;14.73;;;13.60;99.90;;;;;;5091834;28;20048;-77
2022/08/19 04:53:28;;;;;;;22.17;14.27;;;13.90;99.90;;;;;;5092122;28;20048;-78
2022/08/19 04:55:54;;;;;;;22.38;13.02;;;14.70;99.90;;;;;;5091945;28;20052;-79
2022/08/19 04:58:20;;;;;;;26.95;14.10;;;14.00;99.90;;;;;;5091881;28;20116;-80
2022/08/19 05:00:46;;;;;;;22.00;13.90;;;14.30;99.90;;;;;;5091973;28;20048;-79
2022/08/19 05:03:12;;;;;;;24.77;14.35;;;13.80;99.90;;;;;;5091610;28;20040;-79
2022/08/19 05:05:40;;;;;;;25.70;14.13;;;14.10;99.90;;;;;;5091770;28;20048;-80
2022/08/19 05:08:07;;;;;;;27.25;14.20;;;14.40;99.90;;;;;;5091822;28;20048;-79
2022/08/19 05:10:35;;;;;;;;;;;14.40;99.90;;;;;;5074485;28;20091;-80
2022/08/19 05:13:01;;;;;;;24.75;13.57;;;14.50;99.90;;;;;;5095967;28;19993;-79
2022/08/19 05:15:26;;;;;;;22.67;12.85;;;14.40;99.90;;;;;;5096237;28;20562;-80
2022/08/19 05:23:22;;;;;;;21.20;13.93;;;14.40;99.90;;;;;;5095838;28;20058;-81
2022/08/19 05:25:50;;;;;;;21.48;13.32;;;14.50;99.90;;;;;;5096008;28;20043;-80
2022/08/19 05:28:16;;;;;;;22.67;14.25;;;14.60;99.90;;;;;;5095921;28;20044;-80
2022/08/19 05:30:44;;;;;;;;;;;14.60;99.90;;;;;;5095780;28;20118;-79
2022/08/19 05:33:11;;;;;;;21.30;13.55;;;14.90;99.90;;;;;;5094492;28;19924;-80
2022/08/19 05:35:39;;;;;;;23.27;14.40;;;14.80;99.90;;;;;;5095714;28;20094;-79
2022/08/19 05:38:07;;;;;;;23.20;13.55;;;15.10;99.90;;;;;;5095479;28;20051;-81
2022/08/19 05:40:38;;;;;;;23.85;14.93;;;15.40;99.90;;;;;;5098968;28;20487;-80
2022/08/19 05:43:05;;;;;;;25.80;15.45;;;15.10;99.90;;;;;;5103634;28;20050;-80
2022/08/19 05:45:31;;;;;;;27.08;15.15;;;15.20;99.90;;;;;;5103645;28;20493;-79
2022/08/19 05:47:58;;;;;;;;;;;15.40;99.90;;;;;;5103933;28;20079;-79
2022/08/19 05:50:26;;;;;;;25.77;14.43;;;15.40;99.90;;;;;;5105669;28;19959;-79
2022/08/19 05:52:52;;;;;;;23.33;15.38;;;15.20;99.90;;;;;;5102274;28;20044;-80
2022/08/19 05:55:20;;;;;;;24.90;14.90;;;15.50;99.90;;;;;;5101196;28;20052;-80
2022/08/19 05:57:46;;;;;;;23.25;14.23;;;15.50;99.90;;;;;;5113072;28;20051;-80
2022/08/19 06:00:13;;;;;;;23.40;13.88;;;15.50;99.90;;;;;;5115188;28;20456;-80
2022/08/19 06:02:40;;;;;;;24.48;14.32;;;15.50;99.90;;;;;;5114606;28;20060;-80
2022/08/19 06:05:08;;;;;;;26.50;14.45;;;16.00;99.90;;;;;;5115458;28;20483;-80
2022/08/19 06:07:36;;;;;;;26.75;15.05;;;15.80;99.90;;;;;;5115769;28;20507;-79
2022/08/19 06:10:04;;;;;;;25.58;14.65;;;15.70;99.90;;;;;;5115528;28;20495;-80
2022/08/19 06:12:33;;;;;;;24.45;15.10;;;15.90;99.90;;;;;;5114236;28;20483;-79
2022/08/19 06:15:04;;;;;;;28.05;16.20;;;16.30;99.90;;;;;;5115255;28;20465;-79
2022/08/19 06:17:30;;;;;;;24.83;15.15;;;16.20;99.90;;;;;;5115280;28;20044;-80
2022/08/19 06:19:56;;;;;;;26.42;15.25;;;16.30;99.90;;;;;;5115522;28;20043;-80
2022/08/19 06:22:22;;;;;;;;;;;16.10;99.90;;;;;;5115636;28;20039;-79
2022/08/19 06:24:52;;;;;;;27.08;15.90;;;16.60;99.90;;;;;;5114219;28;19931;-78
2022/08/19 06:27:18;;;;;;;28.33;16.85;;;16.50;99.90;;;;;;5115391;28;20059;-80
2022/08/19 06:29:46;;;;;;;31.40;17.02;;;16.80;99.90;;;;;;5114754;28;20130;-78
2022/08/19 06:32:14;;;;;;;23.73;15.50;;;17.00;99.90;;;;;;5114928;28;20049;-79
2022/08/19 06:34:40;;;;;;;28.08;15.98;;;17.00;99.90;;;;;;5115065;28;20134;-78
2022/08/19 06:37:06;;;;;;;;;;;17.00;99.90;;;;;;5114375;28;20043;-80
2022/08/19 06:39:35;;;;;;;26.88;16.52;;;17.30;99.90;;;;;;5114983;28;20010;-80
2022/08/19 06:42:03;;;;;;;22.65;15.48;;;17.10;99.90;;;;;;5114914;28;20089;-80
2022/08/19 06:44:34;;;;;;;26.52;15.00;;;17.50;99.90;;;;;;5114633;27;20062;-78
2022/08/19 06:47:02;;;;;;;24.92;15.80;;;17.20;99.90;;;;;;5114727;28;20491;-80
2022/08/19 06:49:30;;;;;;;26.40;16.08;;;17.50;99.90;;;;;;5105962;28;20083;-73
2022/08/19 06:51:57;;;;;;;24.02;15.05;;;17.60;99.90;;;;;;5089466;28;20121;-77
2022/08/19 06:54:22;;;;;;;27.20;15.68;;;17.60;99.90;;;;;;5093853;28;20054;-77
2022/08/19 06:56:48;;;;;;;;;;;17.80;99.90;;;;;;5094438;28;20492;-76
2022/08/19 06:59:18;;;;;;;23.95;15.07;;;17.90;99.90;;;;;;5093973;28;19920;-74
2022/08/19 07:01:48;;;;;;;21.38;14.75;;;18.20;99.90;;;;;;5092394;28;20079;-74
2022/08/19 07:04:24;;;;;;;22.90;14.98;;;18.20;99.90;;;;;;5076145;28;20056;-75
2022/08/19 07:06:51;;;;;;;21.73;14.93;;;18.10;99.90;;;;;;5092417;28;20044;-68
2022/08/19 07:09:18;;;;;;;24.30;16.10;;;18.50;99.90;;;;;;5093878;28;20094;-74
2022/08/19 07:11:48;;;;;;;23.95;15.77;;;18.50;99.90;;;;;;5092654;28;20051;-76
2022/08/19 07:14:17;;;;;;;20.17;15.63;;;18.40;99.90;;;;;;5093002;28;20092;-76
2022/08/19 07:16:45;;;;;;;21.88;14.90;;;18.90;99.90;;;;;;5091061;28;20125;-74
2022/08/19 07:19:11;;;;;;;21.48;16.23;;;18.70;99.90;;;;;;5102315;28;20040;-76
2022/08/19 07:21:37;;;;;;;23.10;15.82;;;18.80;99.90;;;;;;5099504;28;20042;-77
2022/08/19 07:24:04;;;;;;;20.65;14.77;;;19.10;99.90;;;;;;5099670;28;20043;-76
2022/08/19 07:26:32;;;;;;;22.63;15.52;;;19.60;99.90;;;;;;5100827;28;20047;-77
2022/08/19 07:29:00;;;;;;;20.90;15.48;;;19.30;99.90;;;;;;5100356;28;20048;-75
2022/08/19 07:31:27;;;;;;;22.50;15.35;;;19.50;99.90;;;;;;5100339;28;20094;-75
2022/08/19 07:33:57;;;;;;;23.02;14.73;;;19.30;99.90;;;;;;5100488;28;20123;-76
2022/08/19 07:36:31;;;;;;;24.70;14.30;;;19.60;99.90;;;;;;5096823;28;20048;-76
2022/08/19 07:38:59;;;;;;;21.40;14.73;;;19.70;99.90;;;;;;5100747;27;20079;-76
2022/08/19 07:41:26;;;;;;;19.55;14.75;;;19.80;99.90;;;;;;5095701;28;20040;-75
2022/08/19 07:43:52;;;;;;;20.27;15.35;;;20.20;99.90;;;;;;5091313;28;20051;-75
2022/08/19 07:46:20;;;;;;;16.55;14.40;;;20.10;99.90;;;;;;5091783;28;20056;-76
2022/08/19 07:48:48;;;;;;;20.63;13.75;;;20.10;99.90;;;;;;5091887;28;20067;-75
2022/08/19 07:51:17;;;;;;;21.50;14.63;;;19.80;99.90;;;;;;5092998;28;20086;-76
2022/08/19 07:53:44;;;;;;;21.08;14.43;;;20.40;99.90;;;;;;5092907;28;20044;-75
2022/08/19 07:56:12;;;;;;;21.15;14.60;;;20.80;99.90;;;;;;5092820;28;20420;-75
2022/08/19 07:58:41;;;;;;;22.80;15.40;;;20.40;99.90;;;;;;5092783;28;20492;-75
2022/08/19 08:01:09;;;;;;;21.00;15.00;;;20.40;99.90;;;;;;5092947;28;20077;-76
2022/08/19 08:09:11;;;;;;;20.95;14.90;;;20.90;99.90;;;;;;5091586;28;20067;-77
2022/08/19 08:11:40;;;;;;;20.08;15.15;;;21.30;99.90;;;;;;5091273;28;20044;-76
2022/08/19 08:14:06;;;;;;;18.88;14.52;;;21.20;99.90;;;;;;5074828;28;20044;-77
2022/08/19 08:16:37;;;;;;;19.45;14.75;;;21.30;99.90;;;;;;5093401;28;20118;-76
2022/08/19 08:19:06;;;;;;;18.27;15.30;;;21.40;99.90;;;;;;5092727;28;20450;-76
2022/08/19 08:21:33;;;;;;;20.88;14.32;;;21.70;99.90;;;;;;5092723;28;20067;-76
2022/08/19 08:23:59;;;;;;;17.88;14.25;;;21.80;99.90;;;;;;5092846;28;20044;-76
2022/08/19 08:26:25;;;;;;;19.73;14.98;;;21.60;99.90;;;;;;5092406;28;20056;-77
2022/08/19 08:28:52;;;;;;;19.90;14.52;;;21.70;99.90;;;;;;5092312;28;20127;-79
2022/08/19 08:31:18;;;;;;;17.05;14.35;;;22.10;99.90;;;;;;5092593;28;20060;-76
2022/08/19 08:33:46;;;;;;;22.23;14.38;;;21.80;99.90;;;;;;5092351;28;20051;-78
2022/08/19 08:36:15;;;;;;;20.17;14.70;;;22.10;99.90;;;;;;5092309;28;20052;-77
2022/08/19 08:38:45;;;;;;;17.70;14.88;;;22.40;99.90;;;;;;5092169;28;20573;-77
2022/08/19 08:41:35;;;;;;;19.17;15.15;;;22.30;99.90;;;;;;5090814;28;20054;-78
2022/08/19 08:44:03;;;;;;;20.00;15.98;;;22.30;99.90;;;;;;5091354;28;20499;-79
2022/08/19 08:47:03;;;;;;;21.33;15.63;;;22.30;99.90;;;;;;5090246;28;20097;-79
2022/08/19 08:49:48;;;;;;;21.35;16.60;;;22.30;99.90;;;;;;5058411;28;20052;-79
2022/08/19 08:52:18;;;;;;;18.98;15.10;;;22.70;99.90;;;;;;5092372;28;20044;-80
2022/08/19 08:54:46;;;;;;;20.98;16.20;;;22.50;99.90;;;;;;5090941;28;20396;-78
2022/08/19 08:57:21;;;;;;;21.35;16.67;;;23.10;99.90;;;;;;5074240;28;20154;-79
2022/08/19 08:59:51;;;;;;;19.27;16.05;;;22.50;99.90;;;;;;5092098;28;20504;-79
2022/08/19 09:02:18;;;;;;;19.20;15.95;;;23.00;99.90;;;;;;5090960;28;20454;-80
2022/08/19 09:04:44;;;;;;;21.00;14.88;;;22.50;99.90;;;;;;5092182;28;20056;-78
2022/08/19 09:07:38;;;;;;;20.25;16.02;;;23.00;99.90;;;;;;5092027;28;20135;-80
2022/08/19 09:10:18;;;;;;;18.70;15.65;;;23.10;99.90;;;;;;5091723;28;20063;-80
2022/08/19 09:12:54;;;;;;;21.05;16.95;;;23.10;99.90;;;;;;5090221;28;20131;-77
2022/08/19 09:15:29;;;;;;;20.20;16.60;;;23.30;99.90;;;;;;5092213;28;20105;-79
2022/08/19 09:18:01;;;;;;;20.63;17.10;;;23.30;99.90;;;;;;5091117;28;20088;-73
2022/08/19 09:20:27;;;;;;;19.10;16.40;;;23.20;99.90;;;;;;5083719;28;20457;-72
2022/08/19 09:22:53;;;;;;;18.63;15.13;;;23.20;99.90;;;;;;5091370;28;20040;-74
2022/08/19 09:25:24;;;;;;;19.98;15.90;;;23.30;99.90;;;;;;5073852;28;20036;-72
2022/08/19 09:27:53;;;;;;;19.95;15.77;;;23.20;99.90;;;;;;5091895;28;20047;-81
2022/08/19 09:30:27;;;;;;;17.65;14.43;;;23.70;99.90;;;;;;5082295;28;20060;-78
2022/08/19 09:32:54;;;;;;;19.80;16.02;;;23.50;99.90;;;;;;5089858;28;20060;-75
2022/08/19 09:35:26;;;;;;;20.42;15.35;;;23.70;99.90;;;;;;5091559;28;20083;-79
2022/08/19 09:37:52;;;;;;;19.92;14.98;;;23.70;99.90;;;;;;5090808;28;20044;-73
2022/08/19 09:40:18;;;;;;;22.58;16.30;;;24.10;99.90;;;;;;5091438;28;20500;-77
2022/08/19 09:42:47;;;;;;;20.98;16.65;;;24.20;99.90;;;;;;5089950;28;20048;-72
2022/08/19 09:45:17;;;;;;;20.92;17.77;;;24.00;99.90;;;;;;5091462;28;20127;-82
2022/08/19 09:47:43;;;;;;;18.27;14.85;;;24.00;99.90;;;;;;5091705;28;20044;-78
2022/08/19 09:50:11;;;;;;;20.65;16.75;;;24.00;99.90;;;;;;5090977;28;20044;-78
2022/08/19 09:52:37;;;;;;;18.42;15.45;;;24.00;99.90;;;;;;5089975;28;20044;-78
2022/08/19 09:55:04;;;;;;;17.77;15.88;;;24.40;99.90;;;;;;5091336;28;20097;-77
2022/08/19 09:57:30;;;;;;;20.70;15.95;;;24.40;99.90;;;;;;5091854;28;20767;-78
2022/08/19 09:59:56;;;;;;;19.45;16.25;;;24.30;99.90;;;;;;5094968;28;20077;-78
2022/08/19 10:02:21;;;;;;;21.27;17.13;;;24.70;99.90;;;;;;5077132;28;20067;-78
2022/08/19 10:07:31;;;;;;;22.35;17.92;;;24.30;99.90;;;;;;5094771;28;20134;-78
2022/08/19 10:09:57;;;;;;;22.63;18.45;;;24.40;99.90;;;;;;5093848;28;20127;-78
2022/08/19 10:12:22;;;;;;;23.75;19.13;;;24.30;99.90;;;;;;5094789;28;20040;-78
2022/08/19 10:14:50;;;;;;;26.15;19.63;;;24.80;99.90;;;;;;5095227;28;20096;-77
2022/08/19 10:17:17;;;;;;;27.92;19.48;;;24.80;99.90;;;;;;5093433;28;20105;-77
2022/08/19 10:19:43;;;;;;;22.85;17.02;;;24.90;99.90;;;;;;5094445;28;20055;-78
2022/08/19 10:22:10;;;;;;;23.55;18.73;;;25.00;99.90;;;;;;5094253;28;20480;-77
2022/08/19 10:24:36;;;;;;;22.48;19.30;;;24.70;99.90;;;;;;5094811;28;20074;-78
2022/08/19 10:27:03;;;;;;;25.42;19.73;;;24.90;99.90;;;;;;5094605;28;20044;-74
2022/08/19 10:29:30;;;;;;;21.88;19.00;;;25.10;99.90;;;;;;5093519;28;20056;-77
2022/08/19 10:31:57;;;;;;;22.02;17.83;;;25.20;99.90;;;;;;5093348;28;20058;-79
2022/08/19 10:34:23;;;;;;;19.67;17.23;;;25.60;99.90;;;;;;5093779;28;20048;-78
2022/08/19 10:36:49;;;;;;;22.23;19.10;;;25.50;99.90;;;;;;5094271;28;20055;-77
2022/08/19 10:39:15;;;;;;;24.60;19.63;;;25.40;99.90;;;;;;5094730;28;20090;-77
2022/08/19 10:41:43;;;;;;;19.95;17.83;;;25.40;99.90;;;;;;5094704;28;20075;-76
2022/08/19 10:44:12;;;;;;;22.15;18.67;;;25.30;99.90;;;;;;5098664;28;20048;-78
2022/08/19 10:46:41;;;;;;;20.75;18.08;;;25.50;99.90;;;;;;5102449;28;20070;-77
2022/08/19 10:49:08;;;;;;;27.90;20.13;;;25.50;99.90;;;;;;5099231;28;20079;-78
2022/08/19 10:54:19;;;;;;;25.77;20.65;;;25.00;99.90;;;;;;5104600;28;20541;-76
2022/08/19 10:56:50;;;;;;;20.55;18.25;;;25.50;99.90;;;;;;5102498;28;20506;-75
2022/08/19 10:59:22;;;;;;;20.88;18.05;;;25.60;99.90;;;;;;5100565;28;20516;-79
2022/08/19 11:01:49;;;;;;;21.75;18.77;;;25.80;99.90;;;;;;5099043;28;20044;-78
2022/08/19 11:04:17;;;;;;;22.55;18.35;;;25.90;99.90;;;;;;5092143;28;20127;-78
2022/08/19 11:06:47;;;;;;;20.83;18.55;;;26.00;99.90;;;;;;5092661;28;20402;-80
2022/08/19 11:09:17;;;;;;;20.65;17.55;;;25.70;99.90;;;;;;5092449;28;20058;-78
2022/08/19 11:11:43;;;;;;;22.95;19.08;;;26.10;99.90;;;;;;5092603;28;20054;-78
2022/08/19 11:14:11;;;;;;;24.80;20.38;;;25.60;99.90;;;;;;5093477;28;20072;-77
2022/08/19 11:16:38;;;;;;;22.27;19.88;;;25.50;99.90;;;;;;5093947;28;20091;-78
2022/08/19 11:19:07;;;;;;;23.02;19.60;;;25.20;99.90;;;;;;5093078;28;20059;-77
2022/08/19 11:21:35;;;;;;;28.35;24.23;;;25.00;99.90;;;;;;5093490;28;20050;-78
2022/08/19 11:24:05;;;;;;;25.92;20.92;;;25.00;99.90;;;;;;5092587;28;20087;-76
2022/08/19 11:26:32;;;;;;;28.08;21.98;;;24.80;99.90;;;;;;5092257;28;20140;-79
2022/08/19 11:28:59;;;;;;;27.80;22.75;;;25.20;99.90;;;;;;5093355;28;20503;-77
2022/08/19 11:31:30;;;;;;;24.80;21.65;;;25.00;99.90;;;;;;5091983;28;20056;-78
2022/08/19 11:34:02;;;;;;;31.13;24.65;;;25.10;99.90;;;;;;5092910;28;20117;-78
2022/08/19 11:36:29;;;;;;;29.20;21.67;;;24.70;99.90;;;;;;5091903;28;20082;-75
2022/08/19 11:38:55;;;;;;;23.73;18.73;;;25.10;99.90;;;;;;5075179;28;20048;-77
2022/08/19 11:41:23;;;;;;;25.50;20.15;;;25.20;99.90;;;;;;5091828;28;20046;-78
2022/08/19 11:43:50;;;;;;;23.02;18.10;;;25.10;99.90;;;;;;5091921;28;20369;-76
2022/08/19 11:46:17;;;;;;;21.10;18.40;;;25.20;99.90;;;;;;5093199;28;20078;-77
2022/08/19 11:48:42;;;;;;;26.33;19.63;;;25.20;99.90;;;;;;5091329;28;20051;-78
2022/08/19 11:51:14;;;;;;;21.35;17.13;;;25.40;99.90;;;;;;5085834;28;20403;-76
2022/08/19 11:53:40;;;;;;;26.50;19.63;;;25.50;99.90;;;;;;5092641;28;20044;-78
2022/08/19 11:56:08;;;;;;;24.52;18.65;;;25.70;99.90;;;;;;5092483;28;20093;-74
2022/08/19 11:58:34;;;;;;;19.55;15.25;;;25.50;99.90;;;;;;5093237;28;20464;-77
2022/08/19 12:01:00;;;;;;;19.52;15.20;;;25.80;99.90;;;;;;5092782;28;20105;-75
2022/08/19 12:03:25;;;;;;;18.02;14.55;;;25.80;99.90;;;;;;5092596;28;20040;-75
2022/08/19 12:05:51;;;;;;;18.77;14.52;;;25.50;99.90;;;;;;5091058;28;20047;-78
2022/08/19 12:08:18;;;;;;;16.45;12.63;;;25.40;99.90;;;;;;5092730;28;20044;-78
2022/08/19 12:10:45;;;;;;;14.82;12.07;;;25.40;99.90;;;;;;5092600;28;20074;-78
2022/08/19 12:13:13;;;;;;;19.92;12.05;;;24.60;99.90;;;;;;5092647;28;20108;-78
2022/08/19 12:15:45;;;;;;;17.20;11.63;;;24.70;99.90;;;;;;5090767;28;20055;-77
2022/08/19 12:18:13;;;;;;;22.02;12.88;;;24.60;99.90;;;;;;5091732;28;20047;-75
2022/08/19 12:20:40;;;;;;;20.90;12.07;;;24.60;99.90;;;;;;5090726;28;20132;-77
2022/08/19 12:23:10;;;;;;;20.95;12.57;;;24.40;99.90;;;;;;5091223;28;20065;-77
2022/08/19 12:25:51;;;;;;;19.60;15.13;;;24.30;99.90;;;;;;5092330;28;20047;-81
2022/08/19 12:28:19;;;;;;;24.10;16.80;;;23.90;99.90;;;;;;5092200;28;20048;-81
2022/08/19 12:30:45;;;;;;;22.33;16.50;;;23.20;99.90;;;;;;5092187;28;20059;-80
2022/08/19 12:33:13;;;;;;;23.13;16.33;;;22.50;99.90;;;;;;5090346;28;20208;-76
2022/08/19 12:35:43;;;;;;;22.52;17.08;;;22.50;99.90;;;;;;5091924;28;20432;-72
2022/08/19 12:38:10;;;;;;;26.73;16.92;;;22.40;99.90;;;;;;5091006;28;20603;-73
2022/08/19 12:40:36;;;;;;;25.20;17.65;;;22.10;99.90;;;;;;5088382;28;20056;-69
2022/08/19 12:43:01;;;;;;;26.75;18.42;;;22.30;99.90;;;;;;5081219;28;20507;-67
2022/08/19 12:45:28;;;;;;;26.30;17.63;;;22.20;99.90;;;;;;5089358;28;20056;-68
2022/08/19 12:47:54;;;;;;;30.90;17.38;;;22.50;99.90;;;;;;5079084;28;20145;-67
2022/08/19 12:50:21;;;;;;;24.33;17.05;;;22.70;99.90;;;;;;5071403;28;20084;-66
2022/08/19 12:52:47;;;;;;;25.75;17.08;;;22.40;99.90;;;;;;5073231;28;20049;-71
2022/08/19 12:55:13;;;;;;;28.45;16.92;;;22.50;99.90;;;;;;5076542;28;20616;-69
2022/08/19 12:57:40;;;;;;;30.77;18.95;;;22.70;99.90;;;;;;5110202;28;20483;-75
2022/08/19 13:00:17;;;;;;;26.60;17.13;;;23.10;99.90;;;;;;5084476;28;20040;-72